KAL603 RKSS-RKPC
Flight info
| Callsign | KAL603 |
|---|---|
| Flight time | 0h 50m |
| Altitude | 24000 |
| Route | BULTI2U BULTI Y711 DOTOL DOTOL2M |
| Aircraft | A359/H-SDE2E3GHIJ3J4J5LM1ORWXY/LB1D1 |
Departure
| Time | 2025-09-05 13:13 |
|---|---|
| Airport | Gimpo International Airport (RKSS) |
Arrival
| Time | 2025-09-05 14:03 |
|---|---|
| Airport | Jeju International Airport (RKPC) |
| Time | Latitude | Longitude | Altitude | Speed | Heading |
|---|---|---|---|---|---|
| 2025-09-05 12:48 | 37.55763 | 126.80334 | 63 ft | 0 kts | 44° |
| 2025-09-05 12:58 | 37.55760 | 126.80331 | 64 ft | 2 kts | 44° |
| 2025-09-05 12:58 | 37.55733 | 126.80296 | 67 ft | 3 kts | 45° |
| 2025-09-05 12:58 | 37.55718 | 126.80278 | 63 ft | 3 kts | 45° |
| 2025-09-05 12:59 | 37.55673 | 126.80229 | 63 ft | 3 kts | 351° |
| 2025-09-05 13:00 | 37.55670 | 126.80226 | 63 ft | 3 kts | 315° |
| 2025-09-05 13:00 | 37.55652 | 126.80264 | 63 ft | 3 kts | 304° |
| 2025-09-05 13:00 | 37.55644 | 126.80278 | 63 ft | 1 kts | 315° |
| 2025-09-05 13:05 | 37.55652 | 126.80268 | 63 ft | 8 kts | 316° |
| 2025-09-05 13:05 | 37.55764 | 126.80128 | 66 ft | 14 kts | 315° |
| 2025-09-05 13:06 | 37.55899 | 126.79915 | 68 ft | 18 kts | 283° |
| 2025-09-05 13:06 | 37.55939 | 126.79610 | 73 ft | 19 kts | 278° |
| 2025-09-05 13:06 | 37.56006 | 126.79460 | 66 ft | 21 kts | 316° |
| 2025-09-05 13:07 | 37.56228 | 126.79179 | 62 ft | 24 kts | 314° |
| 2025-09-05 13:08 | 37.56564 | 126.78757 | 63 ft | 25 kts | 319° |
| 2025-09-05 13:08 | 37.56822 | 126.78434 | 64 ft | 28 kts | 313° |
| 2025-09-05 13:09 | 37.57064 | 126.78128 | 72 ft | 13 kts | 316° |
| 2025-09-05 13:09 | 37.57159 | 126.77975 | 63 ft | 10 kts | 270° |
| 2025-09-05 13:10 | 37.57147 | 126.77952 | 67 ft | 0 kts | 216° |
| 2025-09-05 13:11 | 37.57088 | 126.77886 | 59 ft | 21 kts | 222° |
| 2025-09-05 13:11 | 37.57015 | 126.77900 | 56 ft | 17 kts | 139° |
| 2025-09-05 13:12 | 37.55941 | 126.79250 | 62 ft | 153 kts | 134° |
| 2025-09-05 13:12 | 37.54399 | 126.81319 | 1235 ft | 152 kts | 134° |
| 2025-09-05 13:12 | 37.53657 | 126.82354 | 1596 ft | 169 kts | 134° |
| 2025-09-05 13:13 | 37.51235 | 126.85733 | 3369 ft | 174 kts | 136° |
| 2025-09-05 13:13 | 37.50405 | 126.86825 | 4055 ft | 170 kts | 138° |
| 2025-09-05 13:14 | 37.47249 | 126.88709 | 5630 ft | 185 kts | 165° |
| 2025-09-05 13:15 | 37.44413 | 126.89461 | 5626 ft | 230 kts | 173° |
| 2025-09-05 13:15 | 37.42769 | 126.89835 | 5765 ft | 250 kts | 171° |
| 2025-09-05 13:16 | 37.37743 | 126.92690 | 5993 ft | 278 kts | 142° |
| 2025-09-05 13:16 | 37.34882 | 126.95950 | 5999 ft | 277 kts | 140° |
| 2025-09-05 13:17 | 37.32025 | 126.99212 | 5998 ft | 278 kts | 141° |
| 2025-09-05 13:17 | 37.29152 | 127.02470 | 5993 ft | 278 kts | 141° |
| 2025-09-05 13:18 | 37.26298 | 127.05694 | 5981 ft | 278 kts | 141° |
| 2025-09-05 13:18 | 37.23100 | 127.08272 | 6148 ft | 275 kts | 167° |
| 2025-09-05 13:18 | 37.21210 | 127.08417 | 6685 ft | 273 kts | 191° |
| 2025-09-05 13:19 | 37.17662 | 127.06800 | 7938 ft | 273 kts | 204° |
| 2025-09-05 13:20 | 37.12355 | 127.03944 | 9703 ft | 281 kts | 204° |
| 2025-09-05 13:20 | 37.08683 | 127.01970 | 10460 ft | 299 kts | 204° |
| 2025-09-05 13:21 | 37.04689 | 126.99825 | 10904 ft | 325 kts | 204° |
| 2025-09-05 13:21 | 37.00396 | 126.97513 | 11325 ft | 347 kts | 204° |
| 2025-09-05 13:22 | 36.95871 | 126.95072 | 11931 ft | 358 kts | 204° |
| 2025-09-05 13:22 | 36.91259 | 126.92602 | 12691 ft | 363 kts | 204° |
| 2025-09-05 13:22 | 36.88929 | 126.91357 | 13076 ft | 365 kts | 204° |
| 2025-09-05 13:23 | 36.84224 | 126.88847 | 13784 ft | 370 kts | 204° |
| 2025-09-05 13:24 | 36.77058 | 126.85032 | 14698 ft | 377 kts | 204° |
| 2025-09-05 13:24 | 36.72114 | 126.82737 | 15274 ft | 384 kts | 192° |
| 2025-09-05 13:25 | 36.66726 | 126.82365 | 15864 ft | 392 kts | 181° |
| 2025-09-05 13:25 | 36.61237 | 126.82697 | 16457 ft | 398 kts | 179° |
| 2025-09-05 13:26 | 36.55683 | 126.83081 | 17031 ft | 402 kts | 180° |
| 2025-09-05 13:26 | 36.50057 | 126.83364 | 17593 ft | 406 kts | 180° |
| 2025-09-05 13:26 | 36.47222 | 126.83476 | 17875 ft | 409 kts | 181° |
| 2025-09-05 13:27 | 36.41510 | 126.83681 | 18412 ft | 413 kts | 181° |
| 2025-09-05 13:28 | 36.32933 | 126.83213 | 19170 ft | 414 kts | 187° |
| 2025-09-05 13:28 | 36.28113 | 126.82683 | 19603 ft | 416 kts | 187° |
| 2025-09-05 13:29 | 36.21376 | 126.81912 | 20167 ft | 419 kts | 187° |
| 2025-09-05 13:29 | 36.15542 | 126.81267 | 20668 ft | 422 kts | 187° |
| 2025-09-05 13:30 | 36.09678 | 126.80630 | 21159 ft | 424 kts | 186° |
| 2025-09-05 13:30 | 36.06735 | 126.80311 | 21380 ft | 425 kts | 186° |
| 2025-09-05 13:30 | 36.00816 | 126.79669 | 21864 ft | 428 kts | 186° |
| 2025-09-05 13:31 | 35.94875 | 126.79025 | 22313 ft | 430 kts | 186° |
| 2025-09-05 13:32 | 35.85894 | 126.78055 | 22973 ft | 434 kts | 186° |
| 2025-09-05 13:32 | 35.79857 | 126.77400 | 23394 ft | 436 kts | 186° |
| 2025-09-05 13:33 | 35.73789 | 126.76744 | 23760 ft | 439 kts | 186° |
| 2025-09-05 13:33 | 35.67640 | 126.76080 | 23951 ft | 453 kts | 186° |
| 2025-09-05 13:34 | 35.61712 | 126.75440 | 23943 ft | 471 kts | 186° |
| 2025-09-05 13:34 | 35.58399 | 126.75084 | 23951 ft | 474 kts | 186° |
| 2025-09-05 13:34 | 35.51823 | 126.74379 | 23952 ft | 474 kts | 186° |
| 2025-09-05 13:35 | 35.45294 | 126.73680 | 23952 ft | 474 kts | 186° |
| 2025-09-05 13:36 | 35.36511 | 126.72740 | 23953 ft | 474 kts | 185° |
| 2025-09-05 13:36 | 35.29945 | 126.72039 | 23952 ft | 474 kts | 185° |
| 2025-09-05 13:37 | 35.22311 | 126.71225 | 23954 ft | 473 kts | 185° |
| 2025-09-05 13:37 | 35.15752 | 126.70527 | 23955 ft | 473 kts | 185° |
| 2025-09-05 13:38 | 35.10260 | 126.69944 | 23965 ft | 473 kts | 185° |
| 2025-09-05 13:38 | 35.06989 | 126.69596 | 23966 ft | 472 kts | 185° |
| 2025-09-05 13:38 | 35.00447 | 126.68901 | 23962 ft | 472 kts | 185° |
| 2025-09-05 13:39 | 34.93904 | 126.68207 | 23961 ft | 472 kts | 185° |
| 2025-09-05 13:40 | 34.84097 | 126.67170 | 23958 ft | 472 kts | 185° |
| 2025-09-05 13:40 | 34.81549 | 126.66901 | 23969 ft | 472 kts | 185° |
| 2025-09-05 13:41 | 34.75175 | 126.66229 | 23964 ft | 471 kts | 185° |
| 2025-09-05 13:41 | 34.68631 | 126.65540 | 23932 ft | 470 kts | 185° |
| 2025-09-05 13:42 | 34.62173 | 126.64861 | 23500 ft | 461 kts | 185° |
| 2025-09-05 13:42 | 34.59002 | 126.64528 | 22979 ft | 455 kts | 185° |
| 2025-09-05 13:42 | 34.52755 | 126.63879 | 21732 ft | 447 kts | 185° |
| 2025-09-05 13:43 | 34.46616 | 126.63239 | 20509 ft | 440 kts | 186° |
| 2025-09-05 13:44 | 34.37563 | 126.62295 | 18625 ft | 431 kts | 186° |
| 2025-09-05 13:44 | 34.31629 | 126.61673 | 17281 ft | 424 kts | 186° |
| 2025-09-05 13:45 | 34.25827 | 126.61066 | 16172 ft | 414 kts | 186° |
| 2025-09-05 13:45 | 34.20093 | 126.60465 | 14964 ft | 412 kts | 187° |
| 2025-09-05 13:46 | 34.14462 | 126.59881 | 13925 ft | 402 kts | 187° |
| 2025-09-05 13:46 | 34.11685 | 126.59591 | 13363 ft | 399 kts | 187° |
| 2025-09-05 13:46 | 34.06188 | 126.59016 | 12316 ft | 393 kts | 186° |
| 2025-09-05 13:47 | 34.00806 | 126.58319 | 11357 ft | 384 kts | 194° |
| 2025-09-05 13:48 | 33.94646 | 126.53577 | 10604 ft | 316 kts | 220° |
| 2025-09-05 13:48 | 33.91355 | 126.50320 | 10162 ft | 297 kts | 220° |
| 2025-09-05 13:48 | 33.89775 | 126.48761 | 9846 ft | 292 kts | 220° |
| 2025-09-05 13:49 | 33.86651 | 126.45705 | 8985 ft | 289 kts | 219° |
| 2025-09-05 13:49 | 33.83542 | 126.42688 | 8166 ft | 286 kts | 219° |
| 2025-09-05 13:50 | 33.80465 | 126.39712 | 7347 ft | 283 kts | 219° |
| 2025-09-05 13:50 | 33.77451 | 126.36801 | 6988 ft | 274 kts | 219° |
| 2025-09-05 13:51 | 33.74477 | 126.33922 | 6985 ft | 268 kts | 220° |
| 2025-09-05 13:52 | 33.73237 | 126.28223 | 6989 ft | 246 kts | 277° |
| 2025-09-05 13:52 | 33.73815 | 126.24165 | 6987 ft | 246 kts | 277° |
| 2025-09-05 13:53 | 33.73847 | 126.20084 | 6991 ft | 245 kts | 262° |
| 2025-09-05 13:53 | 33.73047 | 126.16062 | 6997 ft | 264 kts | 241° |
| 2025-09-05 13:54 | 33.70024 | 126.13670 | 6838 ft | 275 kts | 183° |
| 2025-09-05 13:54 | 33.68137 | 126.14031 | 6619 ft | 277 kts | 165° |
| 2025-09-05 13:54 | 33.64506 | 126.15416 | 6240 ft | 265 kts | 164° |
| 2025-09-05 13:55 | 33.61085 | 126.16677 | 5817 ft | 252 kts | 165° |
| 2025-09-05 13:56 | 33.56075 | 126.18448 | 5097 ft | 249 kts | 165° |
| 2025-09-05 13:56 | 33.52761 | 126.19605 | 4823 ft | 248 kts | 165° |
| 2025-09-05 13:57 | 33.49461 | 126.20755 | 4579 ft | 247 kts | 165° |
| 2025-09-05 13:57 | 33.46321 | 126.22085 | 4330 ft | 235 kts | 150° |
| 2025-09-05 13:57 | 33.45116 | 126.23398 | 4158 ft | 235 kts | 129° |
| 2025-09-05 13:58 | 33.43504 | 126.26776 | 3671 ft | 229 kts | 119° |
| 2025-09-05 13:58 | 33.42263 | 126.30110 | 3351 ft | 220 kts | 97° |
| 2025-09-05 13:59 | 33.43030 | 126.33598 | 2842 ft | 222 kts | 58° |
| 2025-09-05 14:00 | 33.45548 | 126.38290 | 1840 ft | 228 kts | 62° |
| 2025-09-05 14:00 | 33.47243 | 126.41478 | 835 ft | 211 kts | 59° |
| 2025-09-05 14:01 | 33.48615 | 126.44127 | 529 ft | 171 kts | 61° |
| 2025-09-05 14:01 | 33.49794 | 126.46427 | 171 ft | 152 kts | 59° |
| 2025-09-05 14:02 | 33.50797 | 126.48414 | 100 ft | 108 kts | 58° |
| 2025-09-05 14:02 | 33.51031 | 126.48839 | 97 ft | 35 kts | 62° |
| 2025-09-05 14:02 | 33.51027 | 126.48997 | 97 ft | 18 kts | 92° |
| 2025-09-05 14:03 | 33.51026 | 126.49088 | 94 ft | 4 kts | 89° |
| 2025-09-05 14:04 | 33.51046 | 126.49307 | 98 ft | 7 kts | 101° |
| 2025-09-05 14:04 | 33.50976 | 126.49388 | 101 ft | 8 kts | 138° |
| 2025-09-05 14:04 | 33.50933 | 126.49427 | 99 ft | 8 kts | 154° |
| 2025-09-05 14:05 | 33.50814 | 126.49439 | 100 ft | 2 kts | 178° |